sensor_id;sensor_type;location;lat;lon;timestamp;pressure;altitude;pressure_sealevel;temperature;humidity
64086;BME280;50333;47.436;21.390;2022-09-17T00:01:31;99629.03;;;18.72;62.69
64086;BME280;50333;47.436;21.390;2022-09-17T00:04:00;99631.03;;;18.75;62.42
64086;BME280;50333;47.436;21.390;2022-09-17T00:06:32;99627.63;;;18.87;62.00
64086;BME280;50333;47.436;21.390;2022-09-17T00:09:01;99626.56;;;19.16;61.03
64086;BME280;50333;47.436;21.390;2022-09-17T00:11:32;99630.44;;;19.07;61.13
64086;BME280;50333;47.436;21.390;2022-09-17T00:14:01;99631.50;;;18.90;61.81
64086;BME280;50333;47.436;21.390;2022-09-17T00:16:32;99622.88;;;18.80;61.80
64086;BME280;50333;47.436;21.390;2022-09-17T00:19:01;99619.81;;;18.78;61.70
64086;BME280;50333;47.436;21.390;2022-09-17T00:21:30;99621.50;;;18.58;62.10
64086;BME280;50333;47.436;21.390;2022-09-17T00:24:00;99621.47;;;18.71;61.49
64086;BME280;50333;47.436;21.390;2022-09-17T00:26:30;99617.09;;;18.50;62.03
64086;BME280;50333;47.436;21.390;2022-09-17T00:28:59;99614.88;;;18.64;61.81
64086;BME280;50333;47.436;21.390;2022-09-17T00:31:28;99609.56;;;18.77;61.31
64086;BME280;50333;47.436;21.390;2022-09-17T00:33:57;99609.16;;;18.75;61.14
64086;BME280;50333;47.436;21.390;2022-09-17T00:36:26;99609.03;;;18.71;60.48
64086;BME280;50333;47.436;21.390;2022-09-17T00:38:56;99614.66;;;18.82;60.50
64086;BME280;50333;47.436;21.390;2022-09-17T00:41:27;99612.47;;;18.59;60.96
64086;BME280;50333;47.436;21.390;2022-09-17T00:43:58;99617.06;;;18.87;60.41
64086;BME280;50333;47.436;21.390;2022-09-17T00:46:40;99614.84;;;18.89;60.71
64086;BME280;50333;47.436;21.390;2022-09-17T00:49:13;99616.94;;;18.96;60.23
64086;BME280;50333;47.436;21.390;2022-09-17T00:52:04;99620.16;;;18.64;60.94
64086;BME280;50333;47.436;21.390;2022-09-17T00:54:34;99627.00;;;18.53;61.24
64086;BME280;50333;47.436;21.390;2022-09-17T00:57:03;99628.09;;;18.52;61.39
64086;BME280;50333;47.436;21.390;2022-09-17T00:59:31;99636.13;;;18.56;61.01
64086;BME280;50333;47.436;21.390;2022-09-17T01:01:59;99634.69;;;18.71;60.82
64086;BME280;50333;47.436;21.390;2022-09-17T01:04:27;99637.84;;;18.76;60.88
64086;BME280;50333;47.436;21.390;2022-09-17T01:07:18;99638.97;;;18.63;61.37
64086;BME280;50333;47.436;21.390;2022-09-17T01:15:41;99646.34;;;18.57;61.46
64086;BME280;50333;47.436;21.390;2022-09-17T01:24:11;99639.41;;;18.53;61.13
64086;BME280;50333;47.436;21.390;2022-09-17T01:32:19;99633.81;;;18.54;61.85
64086;BME280;50333;47.436;21.390;2022-09-17T01:35:32;99631.72;;;18.47;62.29
64086;BME280;50333;47.436;21.390;2022-09-17T01:38:08;99632.06;;;18.58;62.20
64086;BME280;50333;47.436;21.390;2022-09-17T01:40:46;99637.47;;;18.50;62.57
64086;BME280;50333;47.436;21.390;2022-09-17T01:48:22;99632.81;;;18.59;62.60
64086;BME280;50333;47.436;21.390;2022-09-17T01:50:59;99627.53;;;18.71;62.27
64086;BME280;50333;47.436;21.390;2022-09-17T01:53:37;99633.94;;;18.45;61.96
64086;BME280;50333;47.436;21.390;2022-09-17T01:56:08;99627.66;;;18.62;62.10
64086;BME280;50333;47.436;21.390;2022-09-17T01:58:42;99626.19;;;18.65;62.05
64086;BME280;50333;47.436;21.390;2022-09-17T02:01:15;99630.84;;;18.56;62.59
64086;BME280;50333;47.436;21.390;2022-09-17T02:03:53;99632.72;;;18.55;62.81
64086;BME280;50333;47.436;21.390;2022-09-17T02:06:28;99634.94;;;18.53;62.90
64086;BME280;50333;47.436;21.390;2022-09-17T02:09:00;99627.09;;;18.69;63.02
64086;BME280;50333;47.436;21.390;2022-09-17T02:11:30;99624.03;;;18.67;62.92
64086;BME280;50333;47.436;21.390;2022-09-17T02:14:07;99613.81;;;18.53;63.95
64086;BME280;50333;47.436;21.390;2022-09-17T02:16:40;99613.19;;;18.72;63.43
64086;BME280;50333;47.436;21.390;2022-09-17T02:19:22;99616.09;;;18.67;63.54
64086;BME280;50333;47.436;21.390;2022-09-17T02:24:56;99623.09;;;18.75;63.78
64086;BME280;50333;47.436;21.390;2022-09-17T02:27:36;99617.00;;;18.59;64.24
64086;BME280;50333;47.436;21.390;2022-09-17T02:30:05;99613.91;;;18.57;64.71
64086;BME280;50333;47.436;21.390;2022-09-17T02:32:33;99610.41;;;18.16;65.76
64086;BME280;50333;47.436;21.390;2022-09-17T02:35:01;99603.16;;;18.50;64.91
64086;BME280;50333;47.436;21.390;2022-09-17T02:37:29;99592.47;;;18.58;64.42
64086;BME280;50333;47.436;21.390;2022-09-17T02:39:57;99584.78;;;18.53;64.67
64086;BME280;50333;47.436;21.390;2022-09-17T02:43:22;99588.63;;;18.43;65.03
64086;BME280;50333;47.436;21.390;2022-09-17T02:54:15;99576.97;;;18.32;66.00
64086;BME280;50333;47.436;21.390;2022-09-17T03:00:01;99569.38;;;17.81;67.02
64086;BME280;50333;47.436;21.390;2022-09-17T03:05:10;99573.91;;;17.93;66.63
64086;BME280;50333;47.436;21.390;2022-09-17T03:07:39;99567.56;;;18.19;65.72
64086;BME280;50333;47.436;21.390;2022-09-17T03:10:06;99573.81;;;18.26;65.17
64086;BME280;50333;47.436;21.390;2022-09-17T03:12:35;99579.31;;;18.09;65.52
64086;BME280;50333;47.436;21.390;2022-09-17T03:15:03;99578.28;;;17.77;66.90
64086;BME280;50333;47.436;21.390;2022-09-17T03:17:31;99578.31;;;18.01;66.50
64086;BME280;50333;47.436;21.390;2022-09-17T03:19:59;99575.78;;;17.93;66.71
64086;BME280;50333;47.436;21.390;2022-09-17T03:22:27;99582.69;;;17.97;66.71
64086;BME280;50333;47.436;21.390;2022-09-17T03:24:55;99580.91;;;17.64;67.69
64086;BME280;50333;47.436;21.390;2022-09-17T03:27:23;99581.94;;;17.97;66.71
64086;BME280;50333;47.436;21.390;2022-09-17T03:29:51;99576.34;;;17.86;67.66
64086;BME280;50333;47.436;21.390;2022-09-17T03:32:18;99580.53;;;18.12;67.20
64086;BME280;50333;47.436;21.390;2022-09-17T03:34:46;99577.78;;;18.08;67.15
64086;BME280;50333;47.436;21.390;2022-09-17T03:37:14;99569.31;;;18.02;67.58
64086;BME280;50333;47.436;21.390;2022-09-17T03:39:42;99565.78;;;17.98;67.84
64086;BME280;50333;47.436;21.390;2022-09-17T03:42:10;99565.84;;;17.65;68.50
64086;BME280;50333;47.436;21.390;2022-09-17T03:44:38;99580.72;;;17.82;68.05
64086;BME280;50333;47.436;21.390;2022-09-17T03:47:11;99569.59;;;17.76;68.42
64086;BME280;50333;47.436;21.390;2022-09-17T03:49:39;99565.31;;;17.84;68.35
64086;BME280;50333;47.436;21.390;2022-09-17T03:52:07;99558.47;;;17.58;68.78
64086;BME280;50333;47.436;21.390;2022-09-17T03:54:35;99559.81;;;17.64;68.94
64086;BME280;50333;47.436;21.390;2022-09-17T03:57:03;99567.84;;;17.80;68.79
64086;BME280;50333;47.436;21.390;2022-09-17T03:59:30;99560.78;;;17.60;69.51
64086;BME280;50333;47.436;21.390;2022-09-17T04:01:58;99564.53;;;17.71;69.06
64086;BME280;50333;47.436;21.390;2022-09-17T04:04:26;99564.22;;;17.85;68.44
64086;BME280;50333;47.436;21.390;2022-09-17T04:06:53;99556.63;;;17.83;68.31
64086;BME280;50333;47.436;21.390;2022-09-17T04:09:21;99547.19;;;17.82;68.60
64086;BME280;50333;47.436;21.390;2022-09-17T04:11:49;99542.59;;;18.04;67.77
64086;BME280;50333;47.436;21.390;2022-09-17T04:14:17;99548.63;;;17.92;68.62
64086;BME280;50333;47.436;21.390;2022-09-17T04:16:44;99542.94;;;18.02;68.39
64086;BME280;50333;47.436;21.390;2022-09-17T04:19:12;99543.16;;;18.09;67.87
64086;BME280;50333;47.436;21.390;2022-09-17T04:21:40;99536.97;;;18.18;67.98
64086;BME280;50333;47.436;21.390;2022-09-17T04:24:08;99530.72;;;17.85;68.64
64086;BME280;50333;47.436;21.390;2022-09-17T04:26:36;99531.06;;;17.96;68.48
64086;BME280;50333;47.436;21.390;2022-09-17T04:29:04;99526.22;;;17.98;68.83
64086;BME280;50333;47.436;21.390;2022-09-17T04:31:32;99511.47;;;17.72;70.11
64086;BME280;50333;47.436;21.390;2022-09-17T04:34:00;99514.72;;;17.90;69.52
64086;BME280;50333;47.436;21.390;2022-09-17T04:36:27;99518.97;;;17.95;68.90
64086;BME280;50333;47.436;21.390;2022-09-17T04:38:55;99516.78;;;17.97;68.81
64086;BME280;50333;47.436;21.390;2022-09-17T04:41:23;99509.75;;;17.89;69.32
64086;BME280;50333;47.436;21.390;2022-09-17T04:43:50;99514.59;;;17.87;69.68
64086;BME280;50333;47.436;21.390;2022-09-17T04:46:18;99505.97;;;18.15;68.92
64086;BME280;50333;47.436;21.390;2022-09-17T04:48:46;99495.03;;;17.88;69.77
64086;BME280;50333;47.436;21.390;2022-09-17T04:51:14;99480.53;;;17.94;69.88
64086;BME280;50333;47.436;21.390;2022-09-17T04:53:41;99473.06;;;17.96;69.62
64086;BME280;50333;47.436;21.390;2022-09-17T04:56:09;99468.66;;;18.00;69.52
64086;BME280;50333;47.436;21.390;2022-09-17T04:58:37;99463.50;;;17.92;69.89
64086;BME280;50333;47.436;21.390;2022-09-17T05:01:05;99468.81;;;18.20;68.97
64086;BME280;50333;47.436;21.390;2022-09-17T05:03:33;99467.75;;;18.08;68.99
64086;BME280;50333;47.436;21.390;2022-09-17T05:06:00;99476.66;;;18.04;69.08
64086;BME280;50333;47.436;21.390;2022-09-17T05:08:28;99479.59;;;18.15;68.58
64086;BME280;50333;47.436;21.390;2022-09-17T05:10:56;99479.97;;;17.88;69.75
64086;BME280;50333;47.436;21.390;2022-09-17T05:13:23;99484.03;;;17.98;69.77
64086;BME280;50333;47.436;21.390;2022-09-17T05:15:53;99484.34;;;18.09;69.63
64086;BME280;50333;47.436;21.390;2022-09-17T05:18:24;99478.56;;;17.91;70.78
64086;BME280;50333;47.436;21.390;2022-09-17T05:20:52;99471.28;;;17.76;72.04
64086;BME280;50333;47.436;21.390;2022-09-17T05:23:19;99473.06;;;17.96;70.82
64086;BME280;50333;47.436;21.390;2022-09-17T05:25:47;99465.03;;;17.68;71.29
64086;BME280;50333;47.436;21.390;2022-09-17T05:28:15;99474.91;;;17.46;72.34
64086;BME280;50333;47.436;21.390;2022-09-17T05:30:43;99473.44;;;16.57;75.24
64086;BME280;50333;47.436;21.390;2022-09-17T05:33:11;99471.94;;;17.48;72.01
64086;BME280;50333;47.436;21.390;2022-09-17T05:35:38;99477.81;;;16.53;74.89
64086;BME280;50333;47.436;21.390;2022-09-17T05:38:06;99495.12;;;16.96;74.24
64086;BME280;50333;47.436;21.390;2022-09-17T05:40:34;99491.72;;;17.08;74.18
64086;BME280;50333;47.436;21.390;2022-09-17T05:43:05;99506.53;;;17.01;74.85
64086;BME280;50333;47.436;21.390;2022-09-17T05:45:34;99510.72;;;17.02;74.50
64086;BME280;50333;47.436;21.390;2022-09-17T05:48:03;99519.22;;;17.20;73.70
64086;BME280;50333;47.436;21.390;2022-09-17T05:50:32;99525.16;;;17.41;73.33
64086;BME280;50333;47.436;21.390;2022-09-17T05:53:18;99514.31;;;17.55;73.05
64086;BME280;50333;47.436;21.390;2022-09-17T05:55:45;99522.13;;;17.64;72.32
64086;BME280;50333;47.436;21.390;2022-09-17T05:58:15;99530.47;;;17.66;72.04
64086;BME280;50333;47.436;21.390;2022-09-17T06:00:44;99531.91;;;17.63;72.74
64086;BME280;50333;47.436;21.390;2022-09-17T06:03:15;99530.19;;;17.92;71.87
64086;BME280;50333;47.436;21.390;2022-09-17T06:05:52;99527.53;;;17.92;71.80
64086;BME280;50333;47.436;21.390;2022-09-17T06:08:21;99527.28;;;17.60;72.87
64086;BME280;50333;47.436;21.390;2022-09-17T06:10:49;99521.41;;;17.88;72.09
64086;BME280;50333;47.436;21.390;2022-09-17T06:13:17;99515.88;;;17.81;72.29
64086;BME280;50333;47.436;21.390;2022-09-17T06:15:50;99522.47;;;17.75;72.12
64086;BME280;50333;47.436;21.390;2022-09-17T06:18:18;99514.50;;;17.38;73.23
64086;BME280;50333;47.436;21.390;2022-09-17T06:23:21;99523.59;;;16.94;75.29
64086;BME280;50333;47.436;21.390;2022-09-17T06:25:54;99519.56;;;17.43;74.04
64086;BME280;50333;47.436;21.390;2022-09-17T06:28:22;99527.19;;;17.69;72.98
64086;BME280;50333;47.436;21.390;2022-09-17T06:30:50;99522.25;;;17.80;72.46
64086;BME280;50333;47.436;21.390;2022-09-17T06:33:22;99533.53;;;17.10;74.18
64086;BME280;50333;47.436;21.390;2022-09-17T06:36:01;99522.63;;;17.32;73.74
64086;BME280;50333;47.436;21.390;2022-09-17T06:38:31;99536.72;;;17.49;73.54
64086;BME280;50333;47.436;21.390;2022-09-17T06:41:00;99538.94;;;17.47;73.49
64086;BME280;50333;47.436;21.390;2022-09-17T06:43:28;99549.38;;;17.22;74.82
64086;BME280;50333;47.436;21.390;2022-09-17T06:45:56;99559.50;;;17.32;74.20
64086;BME280;50333;47.436;21.390;2022-09-17T06:48:25;99577.34;;;17.48;73.90
64086;BME280;50333;47.436;21.390;2022-09-17T06:51:01;99575.09;;;17.83;72.45
64086;BME280;50333;47.436;21.390;2022-09-17T06:53:30;99582.56;;;17.81;72.30
64086;BME280;50333;47.436;21.390;2022-09-17T06:55:59;99581.78;;;17.68;73.23
64086;BME280;50333;47.436;21.390;2022-09-17T06:58:36;99590.47;;;17.36;74.66
64086;BME280;50333;47.436;21.390;2022-09-17T07:01:04;99593.16;;;17.48;74.18
64086;BME280;50333;47.436;21.390;2022-09-17T07:03:33;99592.22;;;17.65;72.93
64086;BME280;50333;47.436;21.390;2022-09-17T07:06:01;99598.94;;;17.41;73.78
64086;BME280;50333;47.436;21.390;2022-09-17T07:08:31;99590.97;;;17.96;72.12
64086;BME280;50333;47.436;21.390;2022-09-17T07:11:01;99597.63;;;17.81;72.67
64086;BME280;50333;47.436;21.390;2022-09-17T07:13:29;99597.09;;;17.42;73.72
64086;BME280;50333;47.436;21.390;2022-09-17T07:15:58;99595.09;;;17.84;72.42
64086;BME280;50333;47.436;21.390;2022-09-17T07:18:27;99596.63;;;17.85;72.27
64086;BME280;50333;47.436;21.390;2022-09-17T07:20:59;99591.66;;;17.59;74.38
64086;BME280;50333;47.436;21.390;2022-09-17T07:23:30;99579.16;;;17.81;72.85
64086;BME280;50333;47.436;21.390;2022-09-17T07:26:04;99573.44;;;17.66;72.71
64086;BME280;50333;47.436;21.390;2022-09-17T07:28:33;99574.09;;;17.63;72.94
64086;BME280;50333;47.436;21.390;2022-09-17T07:31:04;99562.66;;;17.59;72.61
64086;BME280;50333;47.436;21.390;2022-09-17T07:33:33;99569.41;;;17.36;73.83
64086;BME280;50333;47.436;21.390;2022-09-17T07:36:04;99567.94;;;17.59;73.18
64086;BME280;50333;47.436;21.390;2022-09-17T07:38:32;99564.78;;;17.32;74.10
64086;BME280;50333;47.436;21.390;2022-09-17T07:41:12;99577.34;;;17.48;74.31
64086;BME280;50333;47.436;21.390;2022-09-17T07:43:41;99564.19;;;17.60;73.66
64086;BME280;50333;47.436;21.390;2022-09-17T07:46:17;99564.69;;;17.41;74.08
64086;BME280;50333;47.436;21.390;2022-09-17T07:48:46;99559.13;;;17.55;73.94
64086;BME280;50333;47.436;21.390;2022-09-17T07:51:23;99558.69;;;17.65;74.40
64086;BME280;50333;47.436;21.390;2022-09-17T07:53:52;99566.87;;;17.97;72.77
64086;BME280;50333;47.436;21.390;2022-09-17T07:56:21;99558.63;;;17.99;72.31
64086;BME280;50333;47.436;21.390;2022-09-17T07:58:49;99559.06;;;17.88;72.14
64086;BME280;50333;47.436;21.390;2022-09-17T08:01:17;99555.88;;;18.20;71.56
64086;BME280;50333;47.436;21.390;2022-09-17T08:03:49;99550.19;;;18.18;71.83
64086;BME280;50333;47.436;21.390;2022-09-17T08:06:26;99546.19;;;18.49;70.84
64086;BME280;50333;47.436;21.390;2022-09-17T08:08:56;99545.09;;;18.50;70.26
64086;BME280;50333;47.436;21.390;2022-09-17T08:11:26;99538.34;;;18.52;69.62
64086;BME280;50333;47.436;21.390;2022-09-17T08:14:14;99542.81;;;18.11;71.49
64086;BME280;50333;47.436;21.390;2022-09-17T08:16:42;99554.41;;;18.59;69.66
64086;BME280;50333;47.436;21.390;2022-09-17T08:19:11;99548.03;;;18.60;69.62
64086;BME280;50333;47.436;21.390;2022-09-17T08:21:39;99546.00;;;18.29;70.41
64086;BME280;50333;47.436;21.390;2022-09-17T08:24:07;99542.25;;;18.30;71.06
64086;BME280;50333;47.436;21.390;2022-09-17T08:26:35;99544.41;;;18.53;70.87
64086;BME280;50333;47.436;21.390;2022-09-17T08:29:02;99551.97;;;18.54;70.82
64086;BME280;50333;47.436;21.390;2022-09-17T08:31:30;99546.03;;;18.57;70.04
64086;BME280;50333;47.436;21.390;2022-09-17T08:33:59;99542.50;;;18.65;70.04
64086;BME280;50333;47.436;21.390;2022-09-17T08:36:27;99543.94;;;18.63;70.12
64086;BME280;50333;47.436;21.390;2022-09-17T08:38:56;99544.81;;;18.55;69.67
64086;BME280;50333;47.436;21.390;2022-09-17T08:44:29;99528.59;;;18.81;68.12
64086;BME280;50333;47.436;21.390;2022-09-17T08:47:10;99520.41;;;18.98;67.73
64086;BME280;50333;47.436;21.390;2022-09-17T08:49:52;99520.25;;;18.38;68.84
64086;BME280;50333;47.436;21.390;2022-09-17T08:52:45;99520.28;;;18.26;68.85
64086;BME280;50333;47.436;21.390;2022-09-17T09:01:06;99522.00;;;18.87;67.40
64086;BME280;50333;47.436;21.390;2022-09-17T09:04:02;99521.56;;;18.85;67.76
64086;BME280;50333;47.436;21.390;2022-09-17T09:06:38;99513.53;;;19.10;66.37
64086;BME280;50333;47.436;21.390;2022-09-17T09:09:14;99514.44;;;19.17;66.45
64086;BME280;50333;47.436;21.390;2022-09-17T09:11:44;99519.28;;;18.99;67.10
64086;BME280;50333;47.436;21.390;2022-09-17T09:14:36;99515.16;;;19.30;65.51
64086;BME280;50333;47.436;21.390;2022-09-17T09:17:08;99527.97;;;19.28;64.68
64086;BME280;50333;47.436;21.390;2022-09-17T09:19:44;99523.25;;;19.21;65.19
64086;BME280;50333;47.436;21.390;2022-09-17T09:31:12;99540.84;;;19.46;64.55
64086;BME280;50333;47.436;21.390;2022-09-17T09:33:44;99536.66;;;19.45;65.12
64086;BME280;50333;47.436;21.390;2022-09-17T09:36:16;99537.91;;;19.19;65.46
64086;BME280;50333;47.436;21.390;2022-09-17T09:39:06;99514.75;;;19.44;64.08
64086;BME280;50333;47.436;21.390;2022-09-17T09:41:39;99525.25;;;19.56;63.89
64086;BME280;50333;47.436;21.390;2022-09-17T09:44:13;99526.34;;;19.55;64.37
64086;BME280;50333;47.436;21.390;2022-09-17T09:58:17;99536.84;;;20.00;62.57
64086;BME280;50333;47.436;21.390;2022-09-17T10:00:48;99540.38;;;20.23;61.91
64086;BME280;50333;47.436;21.390;2022-09-17T10:03:23;99542.44;;;20.14;61.48
64086;BME280;50333;47.436;21.390;2022-09-17T10:08:24;99541.31;;;20.15;62.73
64086;BME280;50333;47.436;21.390;2022-09-17T10:11:20;99545.13;;;19.98;62.75
64086;BME280;50333;47.436;21.390;2022-09-17T10:13:48;99545.28;;;20.05;61.77
64086;BME280;50333;47.436;21.390;2022-09-17T10:16:21;99552.22;;;20.29;60.98
64086;BME280;50333;47.436;21.390;2022-09-17T10:19:12;99550.41;;;20.33;61.07
64086;BME280;50333;47.436;21.390;2022-09-17T10:21:41;99548.78;;;20.29;61.49
64086;BME280;50333;47.436;21.390;2022-09-17T10:24:37;99541.75;;;20.17;61.04
64086;BME280;50333;47.436;21.390;2022-09-17T10:27:17;99546.09;;;20.09;61.75
64086;BME280;50333;47.436;21.390;2022-09-17T10:29:48;99528.87;;;20.15;61.24
64086;BME280;50333;47.436;21.390;2022-09-17T10:32:18;99524.34;;;20.16;61.45
64086;BME280;50333;47.436;21.390;2022-09-17T10:35:21;99522.31;;;20.29;60.37
64086;BME280;50333;47.436;21.390;2022-09-17T10:37:51;99537.56;;;20.16;60.58
64086;BME280;50333;47.436;21.390;2022-09-17T10:42:49;99528.56;;;20.37;60.97
64086;BME280;50333;47.436;21.390;2022-09-17T10:45:24;99529.09;;;20.26;60.24
64086;BME280;50333;47.436;21.390;2022-09-17T10:47:54;99532.16;;;20.28;60.33
64086;BME280;50333;47.436;21.390;2022-09-17T10:50:30;99542.66;;;19.89;61.11
64086;BME280;50333;47.436;21.390;2022-09-17T10:53:05;99537.22;;;20.18;60.37
64086;BME280;50333;47.436;21.390;2022-09-17T11:03:58;99519.66;;;20.09;61.18
64086;BME280;50333;47.436;21.390;2022-09-17T11:12:58;99497.97;;;20.39;59.42
64086;BME280;50333;47.436;21.390;2022-09-17T11:18:40;99497.19;;;20.19;58.96
64086;BME280;50333;47.436;21.390;2022-09-17T11:21:41;99494.94;;;20.21;58.93
64086;BME280;50333;47.436;21.390;2022-09-17T11:24:32;99502.22;;;20.44;57.99
64086;BME280;50333;47.436;21.390;2022-09-17T11:35:45;99480.31;;;19.25;60.67
64086;BME280;50333;47.436;21.390;2022-09-17T11:38:23;99482.87;;;20.04;58.96
64086;BME280;50333;47.436;21.390;2022-09-17T11:41:03;99486.44;;;19.92;58.36
64086;BME280;50333;47.436;21.390;2022-09-17T11:43:39;99488.09;;;20.01;58.39
64086;BME280;50333;47.436;21.390;2022-09-17T11:46:14;99483.44;;;19.78;59.00
64086;BME280;50333;47.436;21.390;2022-09-17T11:48:47;99471.00;;;20.14;58.46
64086;BME280;50333;47.436;21.390;2022-09-17T11:51:44;99472.75;;;20.26;58.22
64086;BME280;50333;47.436;21.390;2022-09-17T11:54:27;99474.53;;;20.22;58.17
64086;BME280;50333;47.436;21.390;2022-09-17T12:02:25;99450.09;;;20.48;57.11
64086;BME280;50333;47.436;21.390;2022-09-17T12:05:02;99453.31;;;20.57;56.48
64086;BME280;50333;47.436;21.390;2022-09-17T12:13:56;99414.78;;;20.40;58.17
64086;BME280;50333;47.436;21.390;2022-09-17T12:16:37;99407.03;;;20.51;55.29
64086;BME280;50333;47.436;21.390;2022-09-17T12:22:06;99389.91;;;20.64;56.64
64086;BME280;50333;47.436;21.390;2022-09-17T12:24:40;99386.28;;;20.73;57.62
64086;BME280;50333;47.436;21.390;2022-09-17T12:27:39;99373.91;;;20.80;58.13
64086;BME280;50333;47.436;21.390;2022-09-17T12:30:23;99372.12;;;20.88;56.80
64086;BME280;50333;47.436;21.390;2022-09-17T12:41:50;99362.06;;;20.97;55.21
64086;BME280;50333;47.436;21.390;2022-09-17T12:56:09;99338.31;;;20.58;56.48
64086;BME280;50333;47.436;21.390;2022-09-17T12:58:57;99349.25;;;20.76;55.83
64086;BME280;50333;47.436;21.390;2022-09-17T13:04:25;99340.34;;;20.88;55.01
64086;BME280;50333;47.436;21.390;2022-09-17T13:16:47;99341.84;;;20.62;56.06
64086;BME280;50333;47.436;21.390;2022-09-17T13:21:58;99340.44;;;20.49;56.58
64086;BME280;50333;47.436;21.390;2022-09-17T13:24:28;99322.56;;;20.65;56.29
64086;BME280;50333;47.436;21.390;2022-09-17T13:26:59;99311.84;;;20.35;56.83
64086;BME280;50333;47.436;21.390;2022-09-17T13:37:33;99313.56;;;20.47;56.54
64086;BME280;50333;47.436;21.390;2022-09-17T13:40:03;99322.22;;;20.01;57.00
64086;BME280;50333;47.436;21.390;2022-09-17T13:42:43;99334.25;;;20.41;56.34
64086;BME280;50333;47.436;21.390;2022-09-17T13:45:14;99320.94;;;20.80;56.19
64086;BME280;50333;47.436;21.390;2022-09-17T13:47:58;99315.63;;;20.57;56.26
64086;BME280;50333;47.436;21.390;2022-09-17T13:50:33;99297.72;;;20.27;57.05
64086;BME280;50333;47.436;21.390;2022-09-17T13:55:48;99285.69;;;20.10;58.08
64086;BME280;50333;47.436;21.390;2022-09-17T14:08:49;99267.97;;;19.91;57.92
64086;BME280;50333;47.436;21.390;2022-09-17T14:13:54;99290.25;;;20.10;57.95
64086;BME280;50333;47.436;21.390;2022-09-17T14:24:28;99259.59;;;20.09;57.83
64086;BME280;50333;47.436;21.390;2022-09-17T14:27:39;99270.63;;;19.91;58.81
64086;BME280;50333;47.436;21.390;2022-09-17T14:30:30;99275.59;;;20.16;58.08
64086;BME280;50333;47.436;21.390;2022-09-17T14:33:14;99279.94;;;20.05;58.34
64086;BME280;50333;47.436;21.390;2022-09-17T14:35:47;99262.91;;;19.83;58.42
64086;BME280;50333;47.436;21.390;2022-09-17T14:41:02;99243.91;;;19.77;58.02
64086;BME280;50333;47.436;21.390;2022-09-17T14:46:28;99256.00;;;19.78;58.42
64086;BME280;50333;47.436;21.390;2022-09-17T14:49:20;99257.94;;;20.01;58.19
64086;BME280;50333;47.436;21.390;2022-09-17T14:51:54;99277.84;;;19.75;58.93
64086;BME280;50333;47.436;21.390;2022-09-17T14:54:23;99279.47;;;19.80;58.62
64086;BME280;50333;47.436;21.390;2022-09-17T14:56:54;99267.44;;;19.82;58.84
64086;BME280;50333;47.436;21.390;2022-09-17T15:04:47;99265.25;;;19.88;59.41
64086;BME280;50333;47.436;21.390;2022-09-17T15:07:15;99267.13;;;19.68;59.88
64086;BME280;50333;47.436;21.390;2022-09-17T15:09:43;99276.59;;;19.88;59.56
64086;BME280;50333;47.436;21.390;2022-09-17T15:12:14;99282.44;;;19.78;60.71
64086;BME280;50333;47.436;21.390;2022-09-17T15:14:45;99266.22;;;19.60;61.75
64086;BME280;50333;47.436;21.390;2022-09-17T15:17:17;99243.06;;;19.34;63.78
64086;BME280;50333;47.436;21.390;2022-09-17T15:19:51;99244.56;;;19.35;63.94
64086;BME280;50333;47.436;21.390;2022-09-17T15:22:28;99220.66;;;19.67;63.88
64086;BME280;50333;47.436;21.390;2022-09-17T15:27:36;99182.34;;;19.18;66.54
64086;BME280;50333;47.436;21.390;2022-09-17T15:30:12;99186.13;;;19.01;67.52
64086;BME280;50333;47.436;21.390;2022-09-17T15:32:48;99198.94;;;19.18;67.02
64086;BME280;50333;47.436;21.390;2022-09-17T15:35:27;99216.09;;;19.09;67.42
64086;BME280;50333;47.436;21.390;2022-09-17T15:38:01;99226.47;;;19.17;67.77
64086;BME280;50333;47.436;21.390;2022-09-17T15:40:50;99221.34;;;19.25;67.20
64086;BME280;50333;47.436;21.390;2022-09-17T15:43:28;99189.25;;;18.87;69.15
64086;BME280;50333;47.436;21.390;2022-09-17T15:45:57;99169.94;;;18.83;69.80
64086;BME280;50333;47.436;21.390;2022-09-17T15:48:42;99173.84;;;18.73;69.52
64086;BME280;50333;47.436;21.390;2022-09-17T15:53:51;99207.87;;;18.78;69.53
64086;BME280;50333;47.436;21.390;2022-09-17T15:56:34;99202.44;;;18.71;69.96
64086;BME280;50333;47.436;21.390;2022-09-17T16:02:02;99197.72;;;18.29;70.76
64086;BME280;50333;47.436;21.390;2022-09-17T16:04:31;99212.78;;;18.44;70.42
64086;BME280;50333;47.436;21.390;2022-09-17T16:07:25;99223.31;;;18.76;69.34
64086;BME280;50333;47.436;21.390;2022-09-17T16:09:51;99238.66;;;18.55;69.54
64086;BME280;50333;47.436;21.390;2022-09-17T16:12:24;99243.44;;;18.49;69.80
64086;BME280;50333;47.436;21.390;2022-09-17T16:14:56;99256.28;;;18.51;69.42
64086;BME280;50333;47.436;21.390;2022-09-17T16:17:41;99250.19;;;18.02;71.48
64086;BME280;50333;47.436;21.390;2022-09-17T16:20:18;99243.22;;;17.53;74.19
64086;BME280;50333;47.436;21.390;2022-09-17T16:22:46;99237.75;;;17.87;73.96
64086;BME280;50333;47.436;21.390;2022-09-17T16:25:17;99218.84;;;17.57;75.12
64086;BME280;50333;47.436;21.390;2022-09-17T16:30:49;99212.81;;;17.56;76.14
64086;BME280;50333;47.436;21.390;2022-09-17T16:33:17;99209.75;;;17.54;75.88
64086;BME280;50333;47.436;21.390;2022-09-17T16:35:45;99199.72;;;17.60;75.25
64086;BME280;50333;47.436;21.390;2022-09-17T16:38:13;99188.62;;;17.38;76.62
64086;BME280;50333;47.436;21.390;2022-09-17T16:40:44;99196.53;;;17.38;76.45
64086;BME280;50333;47.436;21.390;2022-09-17T16:43:14;99198.50;;;17.57;75.99
64086;BME280;50333;47.436;21.390;2022-09-17T16:45:41;99208.75;;;17.75;75.07
64086;BME280;50333;47.436;21.390;2022-09-17T16:48:09;99208.78;;;17.46;75.45